Time;durP1;ratioP1;P1;durP2;ratioP2;P2;SDS_P1;SDS_P2;PMS_P1;PMS_P2;Temp;Humidity;BMP_temperature;BMP_pressure;BME280_temperature;BME280_humidity;BME280_pressure;Samples;Min_cycle;Max_cycle;Signal;HPM_P1;HPM_P2
2022/08/02 00:00:40;;;;;;;0.70;0.10;;;22.90;99.90;;;;;;4975196;28;20454;-75
2022/08/02 00:03:08;;;;;;;0.70;0.10;;;22.90;99.90;;;;;;4975085;28;20474;-74
2022/08/02 00:05:36;;;;;;;0.70;0.10;;;22.80;99.90;;;;;;4975013;28;20442;-74
2022/08/02 00:08:07;;;;;;;0.70;0.10;;;22.80;99.90;;;;;;4974801;28;20806;-74
2022/08/02 00:10:34;;;;;;;0.70;0.20;;;22.80;99.90;;;;;;4974665;28;20449;-75
2022/08/02 00:13:02;;;;;;;0.70;0.10;;;22.80;99.90;;;;;;4974736;28;20773;-74
2022/08/02 00:15:30;;;;;;;0.70;0.20;;;22.80;99.90;;;;;;4974661;28;20950;-74
2022/08/02 00:17:59;;;;;;;0.70;0.10;;;22.80;99.90;;;;;;4972027;28;20486;-74
2022/08/02 00:20:27;;;;;;;0.70;0.10;;;22.80;99.90;;;;;;4973357;28;20458;-74
2022/08/02 00:22:55;;;;;;;0.70;0.10;;;22.80;99.90;;;;;;4973101;28;20473;-74
2022/08/02 00:25:23;;;;;;;0.70;0.10;;;22.70;99.90;;;;;;4973052;28;20442;-74
2022/08/02 00:27:51;;;;;;;0.70;0.10;;;22.70;99.90;;;;;;4972976;28;20827;-74
2022/08/02 00:30:19;;;;;;;0.70;0.10;;;22.70;99.90;;;;;;4973527;28;20464;-75
2022/08/02 00:32:47;;;;;;;0.70;0.10;;;22.70;99.90;;;;;;4973717;28;20474;-74
2022/08/02 00:35:16;;;;;;;0.70;0.20;;;22.70;99.90;;;;;;4974179;28;20455;-74
2022/08/02 00:37:44;;;;;;;0.70;0.20;;;22.70;99.90;;;;;;4973256;28;20568;-74
2022/08/02 00:40:12;;;;;;;0.70;0.20;;;22.60;99.90;;;;;;4974693;28;20454;-74
2022/08/02 00:42:40;;;;;;;0.70;0.20;;;22.60;99.90;;;;;;4974848;28;20484;-74
2022/08/02 00:45:09;;;;;;;0.70;0.20;;;22.60;99.90;;;;;;4974776;28;20456;-74
2022/08/02 00:47:37;;;;;;;0.70;0.20;;;22.60;99.90;;;;;;4974262;28;20802;-74
2022/08/02 00:50:06;;;;;;;1.20;1.10;;;22.60;99.90;;;;;;4973706;28;20533;-74
2022/08/02 00:52:35;;;;;;;0.70;0.20;;;22.50;99.90;;;;;;4973782;28;20478;-73
2022/08/02 00:55:03;;;;;;;0.70;0.10;;;22.50;99.90;;;;;;4974888;28;20525;-75
2022/08/02 00:57:31;;;;;;;0.70;0.10;;;22.50;99.90;;;;;;4975411;28;20482;-74
2022/08/02 00:59:59;;;;;;;0.70;0.10;;;22.50;99.90;;;;;;4975897;28;20817;-74
2022/08/02 01:02:27;;;;;;;0.70;0.10;;;22.50;99.90;;;;;;4974058;28;20481;-74
2022/08/02 01:04:54;;;;;;;0.70;0.20;;;22.50;99.90;;;;;;4973256;28;20477;-74
2022/08/02 01:07:22;;;;;;;0.70;0.20;;;22.40;99.90;;;;;;4973571;28;21050;-74
2022/08/02 01:09:54;;;;;;;0.70;0.10;;;22.50;99.90;;;;;;4974120;28;20469;-74
2022/08/02 01:12:22;;;;;;;0.70;0.20;;;22.40;99.90;;;;;;4973573;28;20473;-74
2022/08/02 01:14:52;;;;;;;0.70;0.20;;;22.40;99.90;;;;;;4973557;28;20457;-74
2022/08/02 01:17:26;;;;;;;0.70;0.10;;;22.40;99.90;;;;;;4973470;28;20485;-75
2022/08/02 01:20:04;;;;;;;1.10;0.97;;;22.40;99.90;;;;;;4973884;28;20456;-74
2022/08/02 01:22:47;;;;;;;0.70;0.20;;;22.40;99.90;;;;;;4973967;28;20473;-74
2022/08/02 01:25:53;;;;;;;0.70;0.10;;;22.30;99.90;;;;;;4973765;28;20587;-74
2022/08/02 01:28:37;;;;;;;0.70;0.10;;;22.30;99.90;;;;;;4959690;28;20958;-74
2022/08/02 01:31:13;;;;;;;0.70;0.10;;;22.30;99.90;;;;;;4973372;28;20504;-74
2022/08/02 01:33:45;;;;;;;0.70;0.10;;;22.30;99.90;;;;;;4973530;28;20490;-73
2022/08/02 01:36:17;;;;;;;0.70;0.10;;;22.30;99.90;;;;;;4973867;28;20454;-73
2022/08/02 01:38:48;;;;;;;0.70;0.10;;;22.30;99.90;;;;;;4974539;28;20490;-74
2022/08/02 01:41:19;;;;;;;0.70;0.10;;;22.30;99.90;;;;;;4972947;28;20470;-74
2022/08/02 01:43:52;;;;;;;0.70;0.10;;;22.30;99.90;;;;;;4974444;28;20466;-75
2022/08/02 01:46:21;;;;;;;0.70;0.10;;;22.30;99.90;;;;;;4976431;28;20457;-74
2022/08/02 01:48:50;;;;;;;0.70;0.20;;;22.30;99.90;;;;;;4976309;28;20438;-74
2022/08/02 01:52:20;;;;;;;0.70;0.20;;;22.30;99.90;;;;;;4973518;28;20485;-74
2022/08/02 01:54:12;;;;;;;0.70;0.10;;;22.30;99.90;;;;;;4973361;28;20452;-74
2022/08/02 01:56:41;;;;;;;0.70;0.10;;;22.30;99.90;;;;;;4973321;28;20867;-73
2022/08/02 01:59:13;;;;;;;0.70;0.10;;;22.30;99.90;;;;;;4972986;28;21006;-74
2022/08/02 02:01:42;;;;;;;0.70;0.10;;;22.30;99.90;;;;;;4973431;28;20446;-75
2022/08/02 02:04:11;;;;;;;0.70;0.20;;;22.20;99.90;;;;;;4972986;28;20453;-74
2022/08/02 02:06:40;;;;;;;0.70;0.20;;;22.30;99.90;;;;;;4972916;28;20454;-74
2022/08/02 02:09:09;;;;;;;0.70;0.20;;;22.30;99.90;;;;;;4972913;28;20450;-75
2022/08/02 02:11:38;;;;;;;0.70;0.10;;;22.30;99.90;;;;;;4972884;28;21005;-75
2022/08/02 02:14:28;;;;;;;0.70;0.10;;;22.30;99.90;;;;;;4973296;28;20469;-75
2022/08/02 02:16:59;;;;;;;0.70;0.10;;;22.30;99.90;;;;;;4972619;28;20457;-75
2022/08/02 02:19:29;;;;;;;0.70;0.10;;;22.30;99.90;;;;;;4972726;28;20548;-75
2022/08/02 02:21:57;;;;;;;0.70;0.10;;;22.30;99.90;;;;;;4972912;28;20458;-75
2022/08/02 02:24:25;;;;;;;0.70;0.20;;;22.30;99.90;;;;;;4972868;28;20532;-75
2022/08/02 02:26:54;;;;;;;0.70;0.10;;;22.30;99.90;;;;;;4972654;28;20462;-75
2022/08/02 02:29:28;;;;;;;0.70;0.20;;;22.20;99.90;;;;;;4972181;28;20537;-75
2022/08/02 02:31:58;;;;;;;0.90;0.20;;;22.20;99.90;;;;;;4972805;28;20438;-75
2022/08/02 02:34:28;;;;;;;0.70;0.10;;;22.10;99.90;;;;;;4972891;28;20452;-74
2022/08/02 02:37:01;;;;;;;0.70;0.20;;;22.20;99.90;;;;;;4972976;28;20470;-74
2022/08/02 02:39:29;;;;;;;0.70;0.10;;;22.10;99.90;;;;;;4972929;28;20824;-74
2022/08/02 02:42:01;;;;;;;0.70;0.10;;;22.00;99.90;;;;;;4972712;28;20446;-75
2022/08/02 02:44:32;;;;;;;0.70;0.17;;;22.00;99.90;;;;;;4973019;28;20446;-75
2022/08/02 02:47:01;;;;;;;0.70;0.20;;;22.00;99.90;;;;;;4972567;28;20443;-74
2022/08/02 02:49:34;;;;;;;0.70;0.10;;;22.00;99.90;;;;;;4973521;28;20466;-75
2022/08/02 02:52:03;;;;;;;0.70;0.10;;;21.90;99.90;;;;;;4972942;28;20868;-74
2022/08/02 02:54:32;;;;;;;0.70;0.10;;;21.90;99.90;;;;;;4972487;28;20454;-74
2022/08/02 02:57:05;;;;;;;0.70;0.20;;;21.90;99.90;;;;;;4970410;28;20442;-74
2022/08/02 02:59:35;;;;;;;0.70;0.20;;;21.90;99.90;;;;;;4972480;28;20488;-75
2022/08/02 03:02:17;;;;;;;0.70;0.10;;;21.90;99.90;;;;;;4974740;28;20460;-75
2022/08/02 03:04:45;;;;;;;0.70;0.10;;;21.90;99.90;;;;;;4976441;28;20444;-74
2022/08/02 03:07:25;;;;;;;0.70;0.10;;;21.90;99.90;;;;;;4976237;28;20505;-74
2022/08/02 03:09:53;;;;;;;0.70;0.17;;;21.90;99.90;;;;;;4975926;28;20538;-74
2022/08/02 03:12:24;;;;;;;0.70;0.10;;;21.80;99.90;;;;;;4976117;28;20476;-74
2022/08/02 03:15:00;;;;;;;0.70;0.10;;;21.80;99.90;;;;;;4975791;28;20986;-74
2022/08/02 03:17:38;;;;;;;0.70;0.10;;;21.80;99.90;;;;;;4976029;28;20458;-73
2022/08/02 03:20:10;;;;;;;0.70;0.10;;;21.70;99.90;;;;;;4975799;28;20490;-74
2022/08/02 03:22:38;;;;;;;0.70;0.20;;;21.70;99.90;;;;;;4975777;28;20466;-75
2022/08/02 03:25:07;;;;;;;0.70;0.13;;;21.70;99.90;;;;;;4975852;28;20453;-73
2022/08/02 03:27:35;;;;;;;0.70;0.10;;;21.70;99.90;;;;;;4975703;28;21011;-73
2022/08/02 03:30:07;;;;;;;0.70;0.10;;;21.70;99.90;;;;;;4976844;28;20442;-75
2022/08/02 03:32:36;;;;;;;0.70;0.10;;;21.60;99.90;;;;;;4977154;28;20481;-75
2022/08/02 03:35:07;;;;;;;0.70;0.10;;;21.60;99.90;;;;;;4977267;28;20457;-74
2022/08/02 03:37:36;;;;;;;0.70;0.10;;;21.60;99.90;;;;;;4976447;28;20450;-74
2022/08/02 03:40:08;;;;;;;0.70;0.20;;;21.50;99.90;;;;;;4976013;28;20513;-74
2022/08/02 03:42:36;;;;;;;0.70;0.10;;;21.50;99.90;;;;;;4975544;28;20505;-74
2022/08/02 03:45:09;;;;;;;0.70;0.10;;;21.50;99.90;;;;;;4975468;28;20457;-74
2022/08/02 03:47:39;;;;;;;0.70;0.10;;;21.40;99.90;;;;;;4975836;28;20549;-74
2022/08/02 03:50:11;;;;;;;0.70;0.20;;;21.40;99.90;;;;;;4976174;28;20442;-75
2022/08/02 03:52:41;;;;;;;0.70;0.10;;;21.40;99.90;;;;;;4976050;28;20474;-74
2022/08/02 03:55:11;;;;;;;0.70;0.10;;;21.40;99.90;;;;;;4975082;28;20450;-74
2022/08/02 03:57:39;;;;;;;0.70;0.10;;;21.40;99.90;;;;;;4975695;28;20458;-74
2022/08/02 04:00:11;;;;;;;0.70;0.10;;;21.40;99.90;;;;;;4977051;28;20486;-74
2022/08/02 04:02:40;;;;;;;0.70;0.10;;;21.40;99.90;;;;;;4976863;28;20852;-75
2022/08/02 04:05:08;;;;;;;2.73;2.63;;;21.40;99.90;;;;;;4977770;28;20469;-74
2022/08/02 04:07:36;;;;;;;0.70;0.10;;;21.40;99.90;;;;;;4976421;28;20942;-74
2022/08/02 04:10:24;;;;;;;0.70;0.10;;;21.50;99.90;;;;;;4976344;28;20443;-74
2022/08/02 04:12:52;;;;;;;0.70;0.10;;;21.40;99.90;;;;;;4976710;28;20507;-74
2022/08/02 04:15:23;;;;;;;0.70;0.10;;;21.40;99.90;;;;;;4976184;28;20531;-74
2022/08/02 04:17:55;;;;;;;0.70;0.20;;;21.40;99.90;;;;;;4976496;28;20454;-73
2022/08/02 04:20:27;;;;;;;0.70;0.10;;;21.50;99.90;;;;;;4977293;28;20478;-73
2022/08/02 04:23:00;;;;;;;0.70;0.20;;;21.50;99.90;;;;;;4976237;28;20462;-73
2022/08/02 04:25:28;;;;;;;0.70;0.10;;;21.40;99.90;;;;;;4977717;28;20873;-74
2022/08/02 04:28:08;;;;;;;0.70;0.10;;;21.30;99.90;;;;;;4978568;28;20469;-73
2022/08/02 04:30:47;;;;;;;0.70;0.10;;;21.20;99.90;;;;;;4979045;28;20462;-74
2022/08/02 04:33:15;;;;;;;0.70;0.10;;;21.10;99.90;;;;;;4978917;28;20478;-74
2022/08/02 04:35:44;;;;;;;0.70;0.10;;;21.10;99.90;;;;;;4978681;28;20450;-74
2022/08/02 04:38:14;;;;;;;0.70;0.10;;;21.00;99.90;;;;;;4978380;28;20518;-74
2022/08/02 04:40:50;;;;;;;0.70;0.20;;;21.00;99.90;;;;;;4978731;28;20534;-74
2022/08/02 04:43:19;;;;;;;0.70;0.20;;;21.10;99.90;;;;;;4976716;28;20477;-74
2022/08/02 04:45:51;;;;;;;0.70;0.10;;;21.10;99.90;;;;;;4975623;28;20541;-75
2022/08/02 04:48:19;;;;;;;0.70;0.20;;;21.10;99.90;;;;;;4975888;28;20845;-75
2022/08/02 04:50:47;;;;;;;0.70;0.10;;;21.20;99.90;;;;;;4975962;28;20438;-75
2022/08/02 04:53:15;;;;;;;0.70;0.10;;;21.20;99.90;;;;;;4975984;28;20565;-74
2022/08/02 04:55:42;;;;;;;0.70;0.10;;;21.20;99.90;;;;;;4976262;28;20477;-73
2022/08/02 04:58:11;;;;;;;0.70;0.20;;;22.60;99.90;;;;;;4979548;28;20465;-73
2022/08/02 05:01:00;;;;;;;0.70;0.10;;;21.20;99.90;;;;;;4979998;28;20482;-74
2022/08/02 05:03:28;;;;;;;0.70;0.17;;;21.20;99.90;;;;;;4979790;28;20477;-76
2022/08/02 05:05:57;;;;;;;0.70;0.10;;;21.30;99.90;;;;;;4979763;28;20488;-73
2022/08/02 05:08:25;;;;;;;0.70;0.10;;;21.30;99.90;;;;;;4978897;28;20446;-73
2022/08/02 05:10:53;;;;;;;0.70;0.10;;;21.30;99.90;;;;;;4978637;28;20446;-73
2022/08/02 05:13:20;;;;;;;0.70;0.10;;;21.50;99.90;;;;;;4976553;28;20563;-73
2022/08/02 05:15:49;;;;;;;0.70;0.10;;;21.50;99.90;;;;;;4976510;28;20508;-75
2022/08/02 05:18:18;;;;;;;0.70;0.10;;;21.50;99.90;;;;;;4974904;28;20931;-77
2022/08/02 05:20:47;;;;;;;0.70;0.10;;;;;;;;;;4974536;28;20577;-74
2022/08/02 05:23:15;;;;;;;0.70;0.20;;;21.50;99.90;;;;;;4974027;28;20470;-75
2022/08/02 05:25:43;;;;;;;0.70;0.10;;;21.40;99.90;;;;;;4973517;28;20450;-74
2022/08/02 05:28:11;;;;;;;0.70;0.10;;;21.30;99.90;;;;;;4973925;28;20920;-73
2022/08/02 05:30:39;;;;;;;0.70;0.20;;;21.30;99.90;;;;;;4973020;28;20983;-75
2022/08/02 05:33:07;;;;;;;0.70;0.20;;;21.30;99.90;;;;;;4957752;28;20892;-70
2022/08/02 05:35:36;;;;;;;0.70;0.17;;;21.30;99.90;;;;;;4975069;28;20541;-71
2022/08/02 05:38:04;;;;;;;0.70;0.10;;;21.30;99.90;;;;;;4974661;28;20454;-75
2022/08/02 05:40:37;;;;;;;0.70;0.10;;;21.30;99.90;;;;;;4974261;28;20989;-75
2022/08/02 05:43:22;;;;;;;0.70;0.10;;;21.40;99.90;;;;;;4974338;28;20485;-76
2022/08/02 05:45:52;;;;;;;0.70;0.13;;;;;;;;;;4975097;28;20446;-74
2022/08/02 05:48:20;;;;;;;0.70;0.10;;;21.40;99.90;;;;;;4973449;28;20453;-78
2022/08/02 05:50:56;;;;;;;0.70;0.10;;;21.40;99.90;;;;;;4974521;28;20453;-76
2022/08/02 05:53:33;;;;;;;0.70;0.10;;;21.50;99.90;;;;;;4973902;28;20462;-74
2022/08/02 05:56:09;;;;;;;0.70;0.20;;;21.50;99.90;;;;;;4973681;28;20461;-73
2022/08/02 05:58:47;;;;;;;0.70;0.10;;;21.50;99.90;;;;;;4973375;28;20460;-74
2022/08/02 06:01:22;;;;;;;0.70;0.10;;;21.60;99.90;;;;;;4973224;28;20485;-74
2022/08/02 06:03:52;;;;;;;0.70;0.20;;;21.80;99.90;;;;;;4971851;28;21005;-74
2022/08/02 06:06:25;;;;;;;0.70;0.10;;;21.80;99.90;;;;;;4971126;28;20485;-74
2022/08/02 06:08:59;;;;;;;0.70;0.20;;;22.00;99.90;;;;;;4963101;28;20440;-72
2022/08/02 06:11:35;;;;;;;0.70;0.10;;;22.10;99.90;;;;;;4962433;28;20462;-73
2022/08/02 06:14:05;;;;;;;0.70;0.37;;;22.10;99.90;;;;;;4954285;28;20936;-72
2022/08/02 06:16:33;;;;;;;0.70;0.10;;;22.20;99.90;;;;;;4957280;28;20984;-73
2022/08/02 06:19:09;;;;;;;0.70;0.20;;;22.20;99.90;;;;;;4965061;28;20880;-75
2022/08/02 06:21:40;;;;;;;0.70;0.13;;;22.30;99.90;;;;;;4959706;28;20478;-74
2022/08/02 06:24:30;;;;;;;0.70;0.10;;;22.30;99.90;;;;;;4966610;28;20449;-74
2022/08/02 06:26:59;;;;;;;0.70;0.20;;;22.40;99.90;;;;;;4972654;28;20446;-74
2022/08/02 06:29:28;;;;;;;0.70;0.10;;;22.40;99.90;;;;;;4972127;28;20454;-72
2022/08/02 06:31:58;;;;;;;0.70;0.20;;;22.50;99.90;;;;;;4967060;28;20447;-74
2022/08/02 06:34:26;;;;;;;0.70;0.13;;;22.50;99.90;;;;;;4962204;28;20466;-74
2022/08/02 06:37:06;;;;;;;0.80;0.20;;;22.60;99.90;;;;;;4961130;28;20964;-73
2022/08/02 06:39:42;;;;;;;0.70;0.10;;;;;;;;;;4958409;28;20439;-74
2022/08/02 06:42:21;;;;;;;0.70;0.10;;;22.60;99.90;;;;;;4958157;28;20471;-74
2022/08/02 06:44:56;;;;;;;0.70;0.10;;;;;;;;;;4957907;28;20451;-75
2022/08/02 06:47:26;;;;;;;0.70;0.10;;;;;;;;;;4957391;28;20497;-74
2022/08/02 06:49:57;;;;;;;0.70;0.10;;;22.70;99.90;;;;;;4957505;28;20451;-74
2022/08/02 06:52:29;;;;;;;0.70;0.10;;;22.70;99.90;;;;;;4957651;28;20522;-73
2022/08/02 06:54:58;;;;;;;0.70;0.10;;;22.70;99.90;;;;;;4971008;28;20454;-74
2022/08/02 06:57:27;;;;;;;0.70;0.10;;;22.70;99.90;;;;;;4976743;28;20447;-74
2022/08/02 06:59:55;;;;;;;0.70;0.10;;;22.80;99.90;;;;;;4976709;28;20438;-75
2022/08/02 07:02:23;;;;;;;0.70;0.10;;;22.90;99.90;;;;;;4970775;28;20498;-74
2022/08/02 07:04:51;;;;;;;0.70;0.10;;;23.00;99.90;;;;;;4967309;28;20438;-74
2022/08/02 07:07:19;;;;;;;0.70;0.10;;;23.00;99.90;;;;;;4976013;28;20537;-74
2022/08/02 07:09:50;;;;;;;0.70;0.20;;;23.00;99.90;;;;;;4975980;28;20825;-76
2022/08/02 07:12:30;;;;;;;0.70;0.10;;;23.10;99.90;;;;;;4976399;28;20544;-74
2022/08/02 07:14:59;;;;;;;0.70;0.10;;;23.10;99.90;;;;;;4976323;28;20484;-75
2022/08/02 07:17:27;;;;;;;0.70;0.20;;;23.20;99.90;;;;;;4976084;28;20446;-74
2022/08/02 07:19:55;;;;;;;0.70;0.27;;;23.20;99.90;;;;;;4975924;28;20446;-73
2022/08/02 07:22:25;;;;;;;0.70;0.20;;;23.30;99.90;;;;;;4976022;28;20481;-75
2022/08/02 07:24:56;;;;;;;0.70;0.20;;;23.30;99.90;;;;;;4975794;28;20488;-74
2022/08/02 07:27:25;;;;;;;0.70;0.20;;;23.40;99.90;;;;;;4976747;28;20453;-74
2022/08/02 07:29:53;;;;;;;0.70;0.10;;;23.40;99.90;;;;;;4977876;28;20473;-74
2022/08/02 07:32:23;;;;;;;0.70;0.20;;;23.40;99.90;;;;;;4978793;28;20477;-74
2022/08/02 07:34:52;;;;;;;0.80;0.40;;;23.30;99.90;;;;;;4976622;28;20445;-73
2022/08/02 07:37:23;;;;;;;0.70;0.10;;;23.30;99.90;;;;;;4976702;28;20498;-73
2022/08/02 07:40:14;;;;;;;0.70;0.20;;;23.20;99.90;;;;;;4976513;28;20955;-75
2022/08/02 07:42:48;;;;;;;0.70;0.13;;;23.20;99.90;;;;;;4976221;28;20508;-75
2022/08/02 07:45:16;;;;;;;0.70;0.10;;;23.20;99.90;;;;;;4976858;28;20549;-77
2022/08/02 07:47:45;;;;;;;0.70;0.10;;;23.30;99.90;;;;;;4975303;28;20442;-74
2022/08/02 07:50:14;;;;;;;0.70;0.10;;;23.40;99.90;;;;;;4975633;28;20449;-75
2022/08/02 07:52:43;;;;;;;0.70;0.10;;;23.40;99.90;;;;;;4976717;28;20473;-74
2022/08/02 07:55:13;;;;;;;0.70;0.10;;;23.60;99.90;;;;;;4977025;28;20445;-73
2022/08/02 07:57:42;;;;;;;0.70;0.20;;;23.60;99.90;;;;;;4976363;28;20457;-74
2022/08/02 08:00:15;;;;;;;0.70;0.10;;;23.80;99.90;;;;;;4976522;28;20448;-74
2022/08/02 08:02:44;;;;;;;0.70;0.10;;;23.90;99.90;;;;;;4976649;28;20486;-74
2022/08/02 08:05:13;;;;;;;0.70;0.10;;;23.90;99.90;;;;;;4975915;28;20452;-74
2022/08/02 08:07:41;;;;;;;0.70;0.20;;;24.00;99.90;;;;;;4975241;28;20450;-74
2022/08/02 08:10:10;;;;;;;0.70;0.10;;;24.00;99.90;;;;;;4975260;28;21014;-74
2022/08/02 08:12:39;;;;;;;0.70;0.10;;;24.20;99.90;;;;;;4974442;28;20485;-75
2022/08/02 08:15:09;;;;;;;0.70;0.23;;;24.20;99.90;;;;;;4974915;28;20903;-74
2022/08/02 08:17:37;;;;;;;0.70;0.10;;;24.20;99.90;;;;;;4972106;28;20457;-74
2022/08/02 08:20:06;;;;;;;0.70;0.10;;;24.30;99.90;;;;;;4971170;28;20471;-74
2022/08/02 08:22:34;;;;;;;0.70;0.20;;;24.30;99.90;;;;;;4972792;28;20504;-73
2022/08/02 08:25:04;;;;;;;0.70;0.10;;;24.40;99.90;;;;;;4974246;28;20449;-73
2022/08/02 08:27:33;;;;;;;0.70;0.20;;;24.50;99.90;;;;;;4975025;28;20458;-74
2022/08/02 08:30:04;;;;;;;0.70;0.10;;;24.50;99.90;;;;;;4974164;28;21018;-75
2022/08/02 08:32:32;;;;;;;0.70;0.20;;;24.50;99.90;;;;;;4974324;28;20482;-74
2022/08/02 08:35:02;;;;;;;0.70;0.10;;;24.70;99.90;;;;;;4974116;28;20482;-73
2022/08/02 08:37:34;;;;;;;0.70;0.17;;;24.70;99.90;;;;;;4974349;28;20453;-74
2022/08/02 08:40:03;;;;;;;0.70;0.10;;;24.70;99.90;;;;;;4974865;28;20450;-74
2022/08/02 08:42:32;;;;;;;0.70;0.20;;;24.70;99.90;;;;;;4973835;28;21006;-74
2022/08/02 08:45:00;;;;;;;0.70;0.10;;;24.70;99.90;;;;;;4974256;28;20974;-73
2022/08/02 08:47:35;;;;;;;0.70;0.20;;;24.60;99.90;;;;;;4974082;28;20511;-78
2022/08/02 08:50:06;;;;;;;0.70;0.10;;;24.70;99.90;;;;;;4974343;28;20488;-76
2022/08/02 08:52:42;;;;;;;0.70;0.10;;;24.80;99.90;;;;;;4974832;28;20544;-76
2022/08/02 08:55:11;;;;;;;0.70;0.20;;;24.80;99.90;;;;;;4974488;28;20505;-77
2022/08/02 08:57:42;;;;;;;0.70;0.10;;;24.90;99.90;;;;;;4971226;28;20824;-76
2022/08/02 09:00:12;;;;;;;0.70;0.10;;;25.00;99.90;;;;;;4973549;28;20442;-75
2022/08/02 09:02:42;;;;;;;0.70;0.30;;;25.10;99.90;;;;;;4974235;28;20485;-76
2022/08/02 09:05:13;;;;;;;0.70;0.10;;;25.10;99.90;;;;;;4975605;28;20450;-76
2022/08/02 09:07:43;;;;;;;0.70;0.10;;;25.10;99.90;;;;;;4977354;28;20823;-76
2022/08/02 09:10:40;;;;;;;0.70;0.10;;;25.20;99.90;;;;;;4968113;28;20448;-73
2022/08/02 09:13:14;;;;;;;0.70;0.10;;;25.20;99.90;;;;;;4975653;28;20492;-74
2022/08/02 09:16:04;;;;;;;0.70;0.10;;;25.30;99.90;;;;;;4973341;28;20867;-74
2022/08/02 09:18:42;;;;;;;0.70;0.20;;;25.40;99.90;;;;;;4972290;28;20974;-76
2022/08/02 09:21:15;;;;;;;0.70;0.10;;;25.50;99.90;;;;;;4965927;28;20481;-76
2022/08/02 09:23:57;;;;;;;0.70;0.10;;;25.60;99.90;;;;;;4973553;28;20971;-75
2022/08/02 09:26:27;;;;;;;0.70;0.20;;;25.60;99.90;;;;;;4973481;28;20449;-75
2022/08/02 09:29:05;;;;;;;0.70;0.10;;;25.70;99.90;;;;;;4972459;28;20454;-75
2022/08/02 09:31:40;;;;;;;0.70;0.10;;;25.80;99.90;;;;;;4973560;28;20446;-74
2022/08/02 09:34:18;;;;;;;0.70;0.10;;;25.90;99.90;;;;;;4973522;28;20465;-75
2022/08/02 09:36:50;;;;;;;0.70;0.10;;;25.90;99.90;;;;;;4973750;28;20895;-75
2022/08/02 09:39:25;;;;;;;0.70;0.10;;;26.00;99.90;;;;;;4973568;28;20460;-75
2022/08/02 09:42:10;;;;;;;0.70;0.10;;;26.10;99.90;;;;;;4973023;28;20578;-74
2022/08/02 09:44:55;;;;;;;0.70;0.10;;;26.10;99.90;;;;;;4973499;28;20480;-75
2022/08/02 09:47:40;;;;;;;0.70;0.10;;;26.10;99.90;;;;;;4973544;28;20550;-74
2022/08/02 09:50:15;;;;;;;0.70;0.10;;;26.20;99.90;;;;;;4978049;28;20960;-75
2022/08/02 09:52:49;;;;;;;0.70;0.10;;;26.30;99.90;;;;;;4992954;28;20501;-74
2022/08/02 09:55:17;;;;;;;0.70;0.10;;;26.40;99.90;;;;;;4992830;28;20536;-75
2022/08/02 09:58:20;;;;;;;0.70;0.10;;;26.50;99.90;;;;;;4992480;28;20475;-75
2022/08/02 10:00:55;;;;;;;0.70;0.20;;;26.50;99.90;;;;;;4981762;28;20442;-75
2022/08/02 10:03:35;;;;;;;0.70;0.10;;;26.60;99.90;;;;;;4973398;28;20490;-77
2022/08/02 10:06:09;;;;;;;0.70;0.10;;;26.60;99.90;;;;;;4973787;28;20449;-75
2022/08/02 10:08:46;;;;;;;0.70;0.10;;;26.70;99.90;;;;;;4969357;28;20478;-75
2022/08/02 10:11:16;;;;;;;0.70;0.10;;;26.80;99.90;;;;;;4965579;28;20450;-74
2022/08/02 10:13:45;;;;;;;0.70;0.10;;;26.90;99.90;;;;;;4979563;28;20466;-77
2022/08/02 10:16:18;;;;;;;0.70;0.10;;;26.90;99.90;;;;;;4978491;28;20457;-76
2022/08/02 10:18:51;;;;;;;0.70;0.10;;;27.10;99.90;;;;;;4970819;28;20458;-74
2022/08/02 10:21:43;;;;;;;0.70;0.20;;;27.20;99.90;;;;;;4977223;28;20458;-76
2022/08/02 10:24:18;;;;;;;0.70;0.20;;;27.20;99.90;;;;;;4986452;28;20481;-77
2022/08/02 10:27:03;;;;;;;0.70;0.17;;;27.20;99.90;;;;;;4974178;28;20851;-76
2022/08/02 10:29:37;;;;;;;0.80;0.27;;;27.20;99.90;;;;;;4973481;28;20843;-76
2022/08/02 10:32:30;;;;;;;0.70;0.20;;;27.20;99.90;;;;;;4970458;28;20511;-76
2022/08/02 10:35:16;;;;;;;0.70;0.20;;;27.20;99.90;;;;;;4977241;28;20457;-72
2022/08/02 10:37:57;;;;;;;0.70;0.20;;;27.30;99.90;;;;;;4978988;28;20450;-78
2022/08/02 10:40:42;;;;;;;0.70;0.10;;;27.40;99.90;;;;;;4979444;28;21001;-77
2022/08/02 10:43:13;;;;;;;0.70;0.20;;;27.40;99.90;;;;;;4979260;28;20485;-77
2022/08/02 10:45:42;;;;;;;1.10;0.63;;;27.60;99.90;;;;;;4979326;28;20473;-77
2022/08/02 10:48:22;;;;;;;0.70;0.20;;;27.70;99.90;;;;;;4978919;28;20456;-77
2022/08/02 10:50:58;;;;;;;0.70;0.10;;;27.70;99.90;;;;;;4979104;28;20609;-78
2022/08/02 10:53:33;;;;;;;0.70;0.10;;;27.70;99.90;;;;;;4979022;28;20481;-77
2022/08/02 10:56:06;;;;;;;0.70;0.20;;;27.70;99.90;;;;;;4978820;28;20477;-77
2022/08/02 10:58:51;;;;;;;0.70;0.20;;;27.70;99.90;;;;;;4961768;28;20441;-76
2022/08/02 11:01:31;;;;;;;0.70;0.20;;;27.90;99.90;;;;;;4979486;28;20950;-77
2022/08/02 11:04:12;;;;;;;0.70;0.10;;;27.90;99.90;;;;;;4978929;28;20517;-78
2022/08/02 11:07:12;;;;;;;0.70;0.20;;;28.00;99.90;;;;;;4979055;28;20957;-73
2022/08/02 11:09:47;;;;;;;0.70;0.20;;;28.00;99.90;;;;;;4978802;28;20997;-73
2022/08/02 11:12:18;;;;;;;0.70;0.20;;;28.10;99.90;;;;;;4978889;28;20833;-72
2022/08/02 11:15:10;;;;;;;0.70;0.20;;;28.20;99.90;;;;;;4979049;28;20442;-71
2022/08/02 11:17:53;;;;;;;0.70;0.20;;;28.30;99.90;;;;;;4975690;28;20485;-72
2022/08/02 11:20:29;;;;;;;0.80;0.30;;;28.40;99.90;;;;;;4967653;28;20622;-76
2022/08/02 11:23:39;;;;;;;0.70;0.10;;;28.50;99.90;;;;;;4964673;28;20492;-75
2022/08/02 11:26:45;;;;;;;0.70;0.20;;;28.50;99.90;;;;;;4963367;28;20450;-76
2022/08/02 11:29:19;;;;;;;0.70;0.10;;;28.50;99.90;;;;;;4963997;28;20465;-76
2022/08/02 11:31:48;;;;;;;0.70;0.20;;;28.50;99.90;;;;;;4975518;28;21015;-76
2022/08/02 11:34:19;;;;;;;0.70;0.20;;;28.50;99.90;;;;;;4975643;28;20465;-77
2022/08/02 11:37:07;;;;;;;0.70;0.10;;;28.60;99.90;;;;;;4975478;28;20862;-76
2022/08/02 11:39:40;;;;;;;3.23;0.40;;;28.70;99.90;;;;;;4976601;28;20489;-75
2022/08/02 11:42:16;;;;;;;0.70;0.10;;;28.60;99.90;;;;;;4975116;28;20553;-75
2022/08/02 11:44:47;;;;;;;0.70;0.10;;;28.60;99.90;;;;;;4973436;28;20500;-76
2022/08/02 11:47:21;;;;;;;0.70;0.20;;;28.70;99.90;;;;;;4972957;28;20458;-77
2022/08/02 11:49:53;;;;;;;0.90;0.40;;;;;;;;;;4970060;28;20500;-75
2022/08/02 11:52:33;;;;;;;0.70;0.10;;;28.70;99.90;;;;;;4974934;28;20481;-76
2022/08/02 11:55:10;;;;;;;0.70;0.10;;;28.70;99.90;;;;;;4974125;28;20458;-75
2022/08/02 11:57:49;;;;;;;0.70;0.10;;;28.70;99.90;;;;;;4967064;28;20462;-74
2022/08/02 12:00:45;;;;;;;0.80;0.37;;;28.80;99.90;;;;;;4976776;28;20451;-74
2022/08/02 12:03:18;;;;;;;0.80;0.20;;;28.70;99.90;;;;;;4975752;28;20827;-76
2022/08/02 12:05:54;;;;;;;0.70;0.13;;;28.50;99.90;;;;;;4975855;28;20921;-77
2022/08/02 12:08:36;;;;;;;0.70;0.10;;;28.60;99.90;;;;;;4962374;28;20484;-76
2022/08/02 12:11:05;;;;;;;0.70;0.17;;;28.60;99.90;;;;;;4975686;28;20450;-74
2022/08/02 12:13:44;;;;;;;0.70;0.10;;;;;;;;;;4975382;28;20462;-73
2022/08/02 12:19:18;;;;;;;0.70;0.20;;;28.60;99.90;;;;;;4954675;28;20467;-75
2022/08/02 12:21:47;;;;;;;0.70;0.17;;;;;;;;;;4974879;28;20796;-75
2022/08/02 12:24:27;;;;;;;0.80;0.20;;;28.80;99.90;;;;;;4974992;28;20486;-74
2022/08/02 12:26:55;;;;;;;0.70;0.10;;;29.00;99.90;;;;;;4975598;28;20454;-74
2022/08/02 12:29:33;;;;;;;0.70;0.20;;;29.10;99.90;;;;;;4975205;28;20454;-73
2022/08/02 12:32:24;;;;;;;0.90;0.30;;;29.10;99.90;;;;;;4975378;28;20474;-73
2022/08/02 12:35:04;;;;;;;0.73;0.33;;;29.10;99.90;;;;;;4974433;28;20447;-74
2022/08/02 12:37:33;;;;;;;0.70;0.20;;;;;;;;;;4975623;28;20446;-73
2022/08/02 12:40:25;;;;;;;0.70;0.20;;;29.00;99.90;;;;;;4975319;28;20450;-74
2022/08/02 12:42:56;;;;;;;0.70;0.20;;;29.10;99.90;;;;;;4975348;28;20454;-74
2022/08/02 12:45:27;;;;;;;0.70;0.20;;;29.20;99.90;;;;;;4974979;28;20423;-74
2022/08/02 12:48:09;;;;;;;0.70;0.10;;;29.30;99.90;;;;;;4975197;28;20513;-74
2022/08/02 12:50:38;;;;;;;0.90;0.30;;;29.30;99.90;;;;;;4974650;28;20450;-75
2022/08/02 12:53:08;;;;;;;0.70;0.20;;;29.30;99.90;;;;;;4974297;28;20474;-75
2022/08/02 12:55:40;;;;;;;0.70;0.10;;;29.40;99.90;;;;;;4973784;28;20450;-75
2022/08/02 12:58:27;;;;;;;0.70;0.33;;;29.30;99.90;;;;;;4974767;28;20552;-76
2022/08/02 13:00:58;;;;;;;0.70;0.13;;;29.20;99.90;;;;;;4974276;28;20454;-75
2022/08/02 13:03:27;;;;;;;0.70;0.20;;;29.10;99.90;;;;;;4974062;28;20498;-75
2022/08/02 13:06:15;;;;;;;0.70;0.20;;;29.20;99.90;;;;;;4973968;28;20531;-75
2022/08/02 13:09:11;;;;;;;0.80;0.40;;;29.30;99.90;;;;;;4973571;28;20451;-75
2022/08/02 13:11:39;;;;;;;0.80;0.30;;;29.20;99.90;;;;;;4974557;28;20542;-77
2022/08/02 13:14:11;;;;;;;0.90;0.40;;;29.20;99.90;;;;;;4967714;28;20526;-77
2022/08/02 13:16:41;;;;;;;0.70;0.30;;;29.20;99.90;;;;;;4969292;28;20447;-77
2022/08/02 13:19:09;;;;;;;0.70;0.10;;;29.20;99.90;;;;;;4982390;28;20447;-77
2022/08/02 13:21:37;;;;;;;0.70;0.30;;;29.30;99.90;;;;;;4974526;28;20470;-76
2022/08/02 13:24:25;;;;;;;0.70;0.20;;;29.40;99.90;;;;;;4972051;28;20561;-77